Welcome to Northern Hawkes Bay. New Zealand.
PWS Header
      nz Flag



Hit Counter


W3C Valid W3C Valid logo


    Wairoa

Select any of the Stations below to visit their websites.










Historic Data from Weather Underground
Select the location of interest below. Wairoa is the default. Please have patience, this Data is slow to load in.
Northern Hawkes Bay Historical Data
Daily Summary for January 24, 2017 Units:  English    Metric   Both
« Previous Day
Next Day »
Daily Weekly Monthly Yearly Custom
  High: Low: Average:
Temperature: 83.5 °F 50.5 °F 66 °F
Dew Point: 63.5 °F 49.6 °F 54.5 °F
Humidity: 99% 44% 69%
Wind Speed: 10.7mph 0mph 3.7mph
Wind Gust: 14.5mph - -
Wind- - WSW
Pressure: 30 in 29.9 in -
Precipitation: 0 in    
Historical Graphs
 
 
Tabular Data for January 24, 2017
Time Temperature Dew Point Pressure Wind Wind Speed Wind Gust Humidity Rainfall Rate (Hourly) solar
00:02 57.6 °F 52.9 °F 29.9 in Calm     84% 0 in 0 W/m2
00:07 57.6 °F 53.1 °F 29.9 in Calm   1.6 mph 85% 0 in 0 W/m2
00:12 57.4 °F 52.9 °F 29.9 in Calm   2.2 mph 85% 0 in 0 W/m2
00:17 57.2 °F 52.7 °F 29.9 in Calm   2.2 mph 85% 0 in 0 W/m2
00:22 56.8 °F 52.7 °F 29.9 in North 0.7 mph 1.6 mph 86% 0 in 0 W/m2
00:27 56.5 °F 52.3 °F 29.9 in Calm   1.6 mph 86% 0 in 0 W/m2
00:32 56.1 °F 52 °F 29.9 in North 1.6 mph 2.2 mph 86% 0 in 0 W/m2
00:37 55.9 °F 52.2 °F 29.9 in NNW 1.6 mph 2.2 mph 87% 0 in 0 W/m2
00:42 55.9 °F 52.3 °F 29.9 in NNW 0.7 mph 2.2 mph 88% 0 in 0 W/m2
00:47 55.9 °F 52.3 °F 29.9 in North 0.7 mph 2.2 mph 88% 0 in 0 W/m2
00:52 55.9 °F 52.9 °F 29.9 in NNW 0.7 mph 2.2 mph 89% 0 in 0 W/m2
00:57 55.6 °F 52.3 °F 29.9 in Calm   2.2 mph 89% 0 in 0 W/m2
01:02 55.6 °F 52.3 °F 29.9 in NW 1.6 mph 2.2 mph 89% 0 in 0 W/m2
01:07 55.2 °F 52.3 °F 29.9 in NW 1.6 mph 2.2 mph 90% 0 in 0 W/m2
01:12 55 °F 52.2 °F 29.9 in NW 1.6 mph 3.1 mph 90% 0 in 0 W/m2
01:17 54.9 °F 52.3 °F 29.9 in NW 1.6 mph 3.8 mph 91% 0 in 0 W/m2
01:22 54.7 °F 52.2 °F 29.9 in NNW 2.2 mph 3.8 mph 91% 0 in 0 W/m2
01:27 54.9 °F 52.5 °F 29.9 in NNW 2.2 mph 6.9 mph 92% 0 in 0 W/m2
01:32 55 °F 52.9 °F 29.9 in NNW 3.1 mph 6.9 mph 92% 0 in 0 W/m2
01:37 55 °F 52.9 °F 29.9 in North 3.1 mph 6 mph 92% 0 in 0 W/m2
01:42 55 °F 52.5 °F 29.9 in North 2.2 mph 6 mph 91% 0 in 0 W/m2
01:47 55 °F 52.5 °F 29.9 in North 3.8 mph 6.9 mph 91% 0 in 0 W/m2
01:52 55 °F 52.5 °F 29.9 in NNE 3.1 mph 6.9 mph 91% 0 in 0 W/m2
01:57 55 °F 52.5 °F 29.9 in North 2.2 mph 6.9 mph 91% 0 in 0 W/m2
02:02 55 °F 52.5 °F 29.9 in North 2.2 mph 5.4 mph 91% 0 in 0 W/m2
02:07 55 °F 52.5 °F 29.9 in North 1.6 mph 5.4 mph 91% 0 in 0 W/m2
02:12 54.9 °F 52.3 °F 29.9 in NNW 2.2 mph 4.5 mph 91% 0 in 0 W/m2
02:17 54.9 °F 52.3 °F 29.9 in NW 1.6 mph 3.8 mph 91% 0 in 0 W/m2
02:22 54.7 °F 52.2 °F 29.9 in NW 2.2 mph 3.8 mph 91% 0 in 0 W/m2
02:28 54.5 °F 52 °F 29.9 in NNW 1.6 mph 3.8 mph 91% 0 in 0 W/m2
02:33 54.3 °F 52.2 °F 29.9 in NNW 2.2 mph 3.8 mph 92% 0 in 0 W/m2
02:38 54.3 °F 52.2 °F 29.9 in NNW 2.2 mph 3.8 mph 92% 0 in 0 W/m2
02:43 54.1 °F 52 °F 29.9 in North 1.6 mph 3.8 mph 92% 0 in 0 W/m2
02:49 54 °F 52 °F 29.9 in North 1.6 mph 3.8 mph 93% 0 in 0 W/m2
02:54 53.8 °F 51.8 °F 29.9 in North 4.5 mph 6 mph 93% 0 in 0 W/m2
02:59 53.8 °F 51.8 °F 29.9 in North 2.2 mph 6 mph 93% 0 in 0 W/m2
03:04 53.6 °F 51.6 °F 29.9 in North 1.6 mph 6 mph 93% 0 in 0 W/m2
03:09 53.4 °F 51.6 °F 29.9 in NNW 2.2 mph 3.8 mph 94% 0 in 0 W/m2
03:14 53.4 °F 52 °F 29.9 in NNW 3.1 mph 4.5 mph 95% 0 in 0 W/m2
03:19 53.2 °F 52 °F 29.9 in NNW 3.1 mph 4.5 mph 95% 0 in 0 W/m2
03:24 53.2 °F 52 °F 29.9 in NNW 3.1 mph 4.5 mph 95% 0 in 0 W/m2
03:29 53.2 °F 52.2 °F 29.9 in NNW 3.8 mph 4.5 mph 96% 0 in 0 W/m2
03:34 53.4 °F 52.3 °F 29.9 in North 4.5 mph 5.4 mph 96% 0 in 0 W/m2
03:39 53.4 °F 52.3 °F 29.9 in NNW 3.1 mph 5.4 mph 96% 0 in 0 W/m2
03:44 53.2 °F 52.2 °F 29.9 in NNW 2.2 mph 5.4 mph 96% 0 in 0 W/m2
03:49 53.2 °F 52.2 °F 29.9 in North 3.1 mph 4.5 mph 96% 0 in 0 W/m2
03:54 53.2 °F 52.3 °F 29.9 in North 1.6 mph 4.5 mph 97% 0 in 0 W/m2
03:59 53.1 °F 52.2 °F 29.9 in North 1.6 mph 4.5 mph 97% 0 in 0 W/m2
04:04 52.9 °F 51.8 °F 29.9 in North 1.6 mph 4.5 mph 96% 0 in 0 W/m2
04:09 52.9 °F 52.2 °F 29.9 in North 2.2 mph 3.8 mph 97% 0 in 0 W/m2
04:14 52.7 °F 52 °F 29.9 in NNW 0.7 mph 5.4 mph 97% 0 in 0 W/m2
04:19 52.7 °F 52 °F 29.9 in NNW 2.2 mph 5.4 mph 97% 0 in 0 W/m2
04:24 52.7 °F 52 °F 29.9 in NNW 2.2 mph 4.5 mph 97% 0 in 0 W/m2
04:29 52.7 °F 52 °F 29.9 in NNW 3.1 mph 5.4 mph 97% 0 in 0 W/m2
04:34 52.7 °F 52 °F 29.9 in North 3.1 mph 5.4 mph 97% 0 in 0 W/m2
04:39 52.7 °F 52 °F 29.9 in NNW 2.2 mph 5.4 mph 97% 0 in 0 W/m2
04:45 52.5 °F 51.6 °F 29.9 in NNW 2.2 mph 5.4 mph 97% 0 in 0 W/m2
04:50 52.5 °F 51.6 °F 29.9 in North 1.6 mph 4.5 mph 97% 0 in 0 W/m2
04:55 52.3 °F 51.3 °F 29.9 in North 3.1 mph 5.4 mph 96% 0 in 0 W/m2
05:00 52.3 °F 51.3 °F 29.9 in NNW 3.1 mph 6.9 mph 96% 0 in 0 W/m2
05:05 52.2 °F 51.1 °F 29.9 in NNW 4.5 mph 6.9 mph 96% 0 in 0 W/m2
05:10 52.2 °F 51.1 °F 29.9 in NNW 3.8 mph 6.9 mph 96% 0 in 0 W/m2
05:15 52 °F 50.9 °F 29.9 in NNW 3.8 mph 6.9 mph 96% 0 in 0 W/m2
05:20 51.8 °F 50.7 °F 29.9 in NNW 4.5 mph 6.9 mph 96% 0 in 0 W/m2
05:25 51.8 °F 50.7 °F 29.9 in NNW 3.8 mph 6 mph 96% 0 in 0 W/m2
05:30 51.6 °F 50.7 °F 29.9 in NNW 3.8 mph 6 mph 97% 0 in 0 W/m2
05:35 51.4 °F 50.5 °F 29.9 in NNW 3.1 mph 6 mph 97% 0 in 0 W/m2
05:40 51.3 °F 50.7 °F 29.9 in North 3.8 mph 6 mph 98% 0 in 0 W/m2
05:45 51.3 °F 50.7 °F 29.9 in NNW 3.1 mph 6 mph 98% 0 in 0 W/m2
05:50 51.1 °F 50.5 °F 29.9 in NW 3.8 mph 6 mph 98% 0 in 0 W/m2
05:55 51.1 °F 50.5 °F 29.9 in NW 3.8 mph 6 mph 98% 0 in 0 W/m2
06:00 51.1 °F 50.7 °F 29.9 in NW 3.8 mph 7.6 mph 99% 0 in 0 W/m2
06:05 51.1 °F 50.7 °F 29.9 in NNW 3.8 mph 7.6 mph 99% 0 in 0 W/m2
06:10 50.9 °F 50.5 °F 29.9 in NW 3.1 mph 6.9 mph 99% 0 in 2 W/m2
06:15 50.7 °F 50.5 °F 29.9 in NW 3.8 mph 6 mph 99% 0 in 5 W/m2
06:20 50.7 °F 50.5 °F 29.9 in NNW 2.2 mph 5.4 mph 99% 0 in 8 W/m2
06:25 50.5 °F 50.4 °F 29.9 in North 3.1 mph 5.4 mph 99% 0 in 11 W/m2
06:30 50.5 °F 50.4 °F 29.9 in NNW 3.1 mph 5.4 mph 99% 0 in 14 W/m2
06:35 50.7 °F 50.5 °F 29.9 in NNW 1.6 mph 4.5 mph 99% 0 in 18 W/m2
06:40 50.7 °F 50.5 °F 29.9 in North 1.6 mph 3.1 mph 99% 0 in 40 W/m2
06:45 51.3 °F 51.1 °F 29.9 in NNW 3.1 mph 4.5 mph 99% 0 in 50 W/m2
06:50 51.8 °F 51.3 °F 29.9 in NNW 3.8 mph 6.9 mph 98% 0 in 61 W/m2
06:55 52.3 °F 51.4 °F 30 in NW 4.5 mph 6.9 mph 97% 0 in 70 W/m2
07:00 52.5 °F 51.4 °F 30 in NW 3.8 mph 6.9 mph 96% 0 in 79 W/m2
07:05 53.1 °F 51.4 °F 30 in NNW 2.2 mph 6.9 mph 94% 0 in 86 W/m2
07:10 53.4 °F 51.4 °F 30 in North 3.8 mph 6.9 mph 93% 0 in 93 W/m2
07:15 54 °F 51.1 °F 30 in North 5.4 mph 7.6 mph 90% 0 in 101 W/m2
07:20 54.3 °F 50.7 °F 30 in NNW 3.1 mph 7.6 mph 88% 0 in 110 W/m2
07:25 54.9 °F 51.1 °F 30 in North 1.6 mph 7.6 mph 87% 0 in 119 W/m2
07:30 56.3 °F 52.5 °F 30 in North 1.6 mph 5.4 mph 87% 0 in 127 W/m2
07:35 57.2 °F 52.3 °F 30 in North 0.7 mph 3.8 mph 84% 0 in 135 W/m2
07:40 58.5 °F 53.2 °F 30 in North 2.2 mph 3.8 mph 83% 0 in 143 W/m2
07:46 59 °F 51.8 °F 30 in North 1.6 mph 5.4 mph 77% 0 in 154 W/m2
07:51 59.2 °F 51.6 °F 30 in North 5.4 mph 6.9 mph 76% 0 in 168 W/m2
07:56 58.5 °F 51.3 °F 30 in North 4.5 mph 7.6 mph 77% 0 in 180 W/m2
08:01 58.6 °F 51.8 °F 30 in North 1.6 mph 7.6 mph 78% 0 in 195 W/m2
08:06 59.7 °F 52.5 °F 30 in North 1.6 mph 7.6 mph 77% 0 in 211 W/m2
08:11 60.3 °F 52.3 °F 30 in North 3.1 mph 6 mph 75% 0 in 230 W/m2
08:16 60.4 °F 52.5 °F 30 in NNW 4.5 mph 6 mph 75% 0 in 243 W/m2
08:22 60.4 °F 52.2 °F 30 in NNW 6 mph 9.2 mph 74% 0 in 263 W/m2
08:27 60.8 °F 52.2 °F 30 in NNW 4.5 mph 9.2 mph 73% 0 in 274 W/m2
08:32 61.5 °F 52.9 °F 30 in NNW 3.1 mph 8.3 mph 73% 0 in 291 W/m2
08:37 61.9 °F 52.9 °F 30 in NNW 3.8 mph 8.3 mph 72% 0 in 304 W/m2
08:42 62.4 °F 53.2 °F 30 in NNW 3.8 mph 8.3 mph 72% 0 in 321 W/m2
08:47 62.6 °F 52.7 °F 30 in NNW 3.1 mph 7.6 mph 70% 0 in 334 W/m2
08:52 63 °F 52.5 °F 30 in North 3.1 mph 7.6 mph 69% 0 in 350 W/m2
08:57 63.5 °F 53.2 °F 30 in North 2.2 mph 7.6 mph 69% 0 in 368 W/m2
09:02 64.2 °F 53.1 °F 30 in NNW 3.1 mph 7.6 mph 67% 0 in 386 W/m2
09:07 64.8 °F 53.2 °F 30 in NW 4.5 mph 7.6 mph 66% 0 in 404 W/m2
09:12 64.8 °F 53.6 °F 30 in NNW 3.8 mph 6.9 mph 67% 0 in 421 W/m2
09:17 65.5 °F 53.1 °F 30 in North 3.1 mph 6.9 mph 64% 0 in 441 W/m2
09:22 66.2 °F 53.8 °F 30 in North 3.8 mph 6.9 mph 64% 0 in 460 W/m2
09:27 66.9 °F 52.5 °F 30 in NNW 4.5 mph 6.9 mph 60% 0 in 481 W/m2
09:32 66.9 °F 51.6 °F 30 in NW 4.5 mph 6.9 mph 58% 0 in 500 W/m2
09:37 67.5 °F 51.3 °F 30 in NNW 1.6 mph 6.9 mph 56% 0 in 520 W/m2
09:42 69.1 °F 52.3 °F 30 in NNW 1.6 mph 6.9 mph 55% 0 in 543 W/m2
09:47 70.2 °F 52.3 °F 30 in NNW 2.2 mph 4.5 mph 53% 0 in 566 W/m2
09:52 70.9 °F 50.7 °F 30 in North 2.2 mph 3.8 mph 49% 0 in 589 W/m2
09:57 72.3 °F 50.4 °F 30 in NNE 0.7 mph 3.8 mph 46% 0 in 611 W/m2
10:02 72.9 °F 49.6 °F 30 in ENE 2.2 mph 5.4 mph 44% 0 in 632 W/m2
10:07 73.4 °F 52 °F 30 in ESE 2.2 mph 5.4 mph 47% 0 in 652 W/m2
10:12 73 °F 51.1 °F 30 in South 1.6 mph 5.4 mph 46% 0 in 672 W/m2
10:17 73.2 °F 50 °F 30 in South 1.6 mph 6 mph 44% 0 in 691 W/m2
10:22 73.2 °F 50.5 °F 30 in Calm   6 mph 45% 0 in 719 W/m2
10:27 75.6 °F 52.2 °F 30 in Calm   3.8 mph 44% 0 in 751 W/m2
10:32 76.3 °F 53.4 °F 30 in SSE 5.4 mph 6.9 mph 45% 0 in 771 W/m2
10:37 72.5 °F 54 °F 30 in South 9.2 mph 12.1 mph 52% 0 in 781 W/m2
10:41 69.1 °F 53.2 °F 30 in South 8.3 mph 13 mph 57% 0 in 784 W/m2
10:47 68.5 °F 54.7 °F 30 in South 6.9 mph 13 mph 61% 0 in 794 W/m2
10:52 67.8 °F 54.9 °F 30 in South 6 mph 12.1 mph 63% 0 in 805 W/m2
10:57 67.6 °F 55.6 °F 30 in SSE 6.9 mph 12.1 mph 65% 0 in 816 W/m2
11:02 67.6 °F 55.6 °F 30 in South 5.4 mph 12.1 mph 65% 0 in 827 W/m2
11:07 68 °F 55 °F 30 in South 7.6 mph 12.1 mph 63% 0 in 841 W/m2
11:12 67.5 °F 54.3 °F 30 in SSE 4.5 mph 12.1 mph 63% 0 in 851 W/m2
11:17 68.4 °F 54.9 °F 30 in South 6.9 mph 9.8 mph 62% 0 in 863 W/m2
11:22 68.2 °F 53.2 °F 30 in South 3.8 mph 10.7 mph 59% 0 in 874 W/m2
11:27 68.7 °F 54.3 °F 30 in South 3.8 mph 10.7 mph 60% 0 in 884 W/m2
11:32 68.9 °F 54 °F 30 in SSE 3.8 mph 9.8 mph 59% 0 in 893 W/m2
11:36 69.1 °F 53.8 °F 30 in SSE 8.3 mph 10.7 mph 58% 0 in 901 W/m2
11:41 68.9 °F 54 °F 30 in South 4.5 mph 10.7 mph 59% 0 in 908 W/m2
11:46 69.1 °F 54.1 °F 30 in South 6 mph 10.7 mph 59% 0 in 914 W/m2
11:51 69.3 °F 56.1 °F 30 in SSW 4.5 mph 10.7 mph 63% 0 in 919 W/m2
11:56 68.9 °F 55.4 °F 30 in South 6.9 mph 10.7 mph 62% 0 in 922 W/m2
12:01 68 °F 55.4 °F 30 in South 8.3 mph 12.1 mph 64% 0 in 923 W/m2
12:07 68.4 °F 56.1 °F 30 in South 8.3 mph 12.1 mph 65% 0 in 924 W/m2
12:11 68.2 °F 55.9 °F 30 in South 8.3 mph 13 mph 65% 0 in 926 W/m2
12:17 67.6 °F 55.9 °F 30 in SSW 8.3 mph 14.5 mph 66% 0 in 926 W/m2
12:37 68.9 °F 56.1 °F 30 in SSW 7.6 mph 12.1 mph 64% 0 in 939 W/m2
12:42 68.9 °F 56.1 °F 30 in SSW 8.3 mph 13 mph 64% 0 in 937 W/m2
12:47 68.7 °F 56.5 °F 30 in SSW 9.8 mph 13.6 mph 65% 0 in 936 W/m2
12:51 68.5 °F 56.8 °F 30 in SSW 7.6 mph 13.6 mph 66% 0 in 933 W/m2
12:57 68.7 °F 56.5 °F 30 in South 10.7 mph 13 mph 65% 0 in 934 W/m2
13:01 68.4 °F 57.4 °F 30 in SSW 7.6 mph 13 mph 68% 0 in 930 W/m2
13:07 68.5 °F 57.2 °F 30 in South 6 mph 14.5 mph 67% 0 in 930 W/m2
13:11 68.7 °F 57.7 °F 30 in SSW 6 mph 14.5 mph 68% 0 in 926 W/m2
13:17 69.8 °F 58.8 °F 30 in SW 8.3 mph 13.6 mph 68% 0 in 928 W/m2
13:21 69.3 °F 58.6 °F 30 in SSW 8.3 mph 12.1 mph 69% 0 in 925 W/m2
13:27 69.4 °F 59.4 °F 30 in SSW 7.6 mph 12.1 mph 70% 0 in 922 W/m2
13:31 70 °F 59.4 °F 30 in SSW 8.3 mph 12.1 mph 69% 0 in 919 W/m2
13:36 70.2 °F 59.5 °F 30 in SSW 6 mph 12.1 mph 69% 0 in 916 W/m2
13:41 71.1 °F 60.1 °F 30 in SW 6 mph 11.4 mph 68% 0 in 913 W/m2
13:46 71.8 °F 60.6 °F 30 in SW 4.5 mph 9.8 mph 68% 0 in 915 W/m2
13:52 72.3 °F 59.9 °F 30 in SSW 9.2 mph 12.1 mph 65% 0 in 911 W/m2
13:56 72.5 °F 60.1 °F 30 in South 6.9 mph 12.1 mph 65% 0 in 908 W/m2
14:01 73.2 °F 58.5 °F 30 in SSE 6.9 mph 12.1 mph 60% 0 in 904 W/m2
14:06 73.4 °F 59.2 °F 30 in South 3.8 mph 11.4 mph 61% 0 in 898 W/m2
14:12 73.8 °F 59 °F 30 in South 1.6 mph 11.4 mph 60% 0 in 893 W/m2
14:16 74.8 °F 59.5 °F 30 in SSE 3.8 mph 9.8 mph 59% 0 in 892 W/m2
14:22 75 °F 57.7 °F 30 in SE 4.5 mph 8.3 mph 55% 0 in 878 W/m2
14:27 75 °F 56.8 °F 30 in ESE 4.5 mph 9.2 mph 53% 0 in 871 W/m2
14:31 75.6 °F 54.5 °F 30 in ESE 4.5 mph 9.2 mph 48% 0 in 863 W/m2
14:36 75.7 °F 55.8 °F 30 in ESE 2.2 mph 7.6 mph 50% 0 in 858 W/m2
14:41 76.5 °F 55.9 °F 30 in ESE 3.8 mph 7.6 mph 49% 0 in 851 W/m2
14:46 76.8 °F 55 °F 30 in SE 6 mph 10.7 mph 47% 0 in 846 W/m2
14:51 77.2 °F 54.9 °F 30 in SE 5.4 mph 10.7 mph 46% 0 in 834 W/m2
14:56 77.4 °F 55.6 °F 30 in SE 5.4 mph 9.2 mph 47% 0 in 824 W/m2
15:02 77.4 °F 56.1 °F 30 in SE 3.1 mph 9.2 mph 48% 0 in 816 W/m2
15:06 77.4 °F 55.6 °F 30 in SE 2.2 mph 9.8 mph 47% 0 in 796 W/m2
15:11 77.7 °F 57.6 °F 30 in SE 3.8 mph 9.8 mph 50% 0 in 794 W/m2
15:17 78.1 °F 56.8 °F 30 in SE 6 mph 10.7 mph 48% 0 in 786 W/m2
15:22 77.9 °F 58.8 °F 30 in SE 3.1 mph 10.7 mph 52% 0 in 729 W/m2
15:27 78.4 °F 58.3 °F 30 in SSE 3.1 mph 9.8 mph 50% 0 in 759 W/m2
15:32 79 °F 57 °F 30 in ESE 6 mph 10.7 mph 47% 0 in 638 W/m2
15:37 77.9 °F 58.5 °F 30 in East 3.1 mph 10.7 mph 51% 0 in 702 W/m2
15:42 78.1 °F 58.5 °F 30 in ESE 5.4 mph 10.7 mph 51% 0 in 725 W/m2
15:47 78.6 °F 59.5 °F 29.9 in SE 3.1 mph 9.2 mph 52% 0 in 718 W/m2
15:52 78.6 °F 59 °F 29.9 in ESE 6 mph 10.7 mph 51% 0 in 707 W/m2
15:57 78.4 °F 58.8 °F 29.9 in ESE 5.4 mph 10.7 mph 51% 0 in 564 W/m2
16:02 78.6 °F 60.1 °F 29.9 in ESE 3.8 mph 11.4 mph 53% 0 in 680 W/m2
16:07 79 °F 59.4 °F 29.9 in SE 5.4 mph 11.4 mph 51% 0 in 592 W/m2
16:12 79.3 °F 60.3 °F 29.9 in SSE 4.5 mph 8.3 mph 52% 0 in 661 W/m2
16:17 80.1 °F 59.7 °F 29.9 in SE 4.5 mph 8.3 mph 50% 0 in 602 W/m2
16:22 80.1 °F 60.3 °F 29.9 in ESE 4.5 mph 9.2 mph 51% 0 in 620 W/m2
16:27 80.1 °F 60.3 °F 29.9 in ESE 3.8 mph 9.2 mph 51% 0 in 621 W/m2
16:32 79.9 °F 60.6 °F 29.9 in ESE 6.9 mph 11.4 mph 52% 0 in 607 W/m2
16:37 80.2 °F 61.2 °F 29.9 in ESE 2.2 mph 11.4 mph 52% 0 in 595 W/m2
16:42 80.4 °F 60.1 °F 29.9 in SE 1.6 mph 8.3 mph 50% 0 in 582 W/m2
16:47 81.3 °F 60.4 °F 29.9 in ESE 5.4 mph 8.3 mph 49% 0 in 572 W/m2
16:52 80.4 °F 60.6 °F 29.9 in ESE 4.5 mph 9.2 mph 51% 0 in 556 W/m2
16:57 80.8 °F 61 °F 29.9 in SE 3.8 mph 9.2 mph 51% 0 in 541 W/m2
17:03 80.8 °F 60.4 °F 29.9 in SE 3.8 mph 8.3 mph 50% 0 in 505 W/m2
17:07 81.1 °F 59.5 °F 29.9 in ESE 3.8 mph 8.3 mph 48% 0 in 477 W/m2
17:12 81.1 °F 59.5 °F 29.9 in ESE 3.8 mph 7.6 mph 48% 0 in 480 W/m2
17:17 81.5 °F 60.1 °F 29.9 in ESE 3.1 mph 7.6 mph 48% 0 in 493 W/m2
17:22 82.2 °F 59.4 °F 29.9 in SE 4.5 mph 6.9 mph 46% 0 in 486 W/m2
17:27 82.6 °F 60.4 °F 29.9 in SE 4.5 mph 7.6 mph 47% 0 in 476 W/m2
17:32 82.9 °F 60.1 °F 29.9 in SSE 3.1 mph 7.6 mph 46% 0 in 463 W/m2
17:37 83.5 °F 60.6 °F 29.9 in SE 1.6 mph 6.9 mph 46% 0 in 288 W/m2
17:42 83.5 °F 60.6 °F 29.9 in SSE 3.1 mph 6 mph 46% 0 in 436 W/m2
17:47 82.8 °F 60.4 °F 29.9 in SSE 3.1 mph 7.6 mph 47% 0 in 366 W/m2
17:52 82.8 °F 59.9 °F 29.9 in SE 2.2 mph 7.6 mph 46% 0 in 271 W/m2
17:57 82.2 °F 58.8 °F 29.9 in SSE 2.2 mph 6 mph 45% 0 in 323 W/m2
18:02 81.7 °F 60.1 °F 29.9 in SSE 2.2 mph 7.6 mph 48% 0 in 307 W/m2
18:07 81.3 °F 59.7 °F 29.9 in SSE 3.1 mph 7.6 mph 48% 0 in 282 W/m2
18:12 81.1 °F 60.8 °F 29.9 in South 3.1 mph 6 mph 50% 0 in 222 W/m2
18:33 78.3 °F 61.3 °F 29.9 in South 2.2 mph 6 mph 56% 0 in 171 W/m2
18:37 77.9 °F 61 °F 29.9 in SSW 2.2 mph 5.4 mph 56% 0 in 149 W/m2
18:42 77.5 °F 61.5 °F 29.9 in South 1.6 mph 5.4 mph 58% 0 in 189 W/m2
18:47 78.3 °F 61.9 °F 29.9 in SSE 1.6 mph 5.4 mph 57% 0 in 161 W/m2
18:52 78.6 °F 62.2 °F 29.9 in South 0.7 mph 3.8 mph 57% 0 in 167 W/m2
18:57 79 °F 61 °F 29.9 in SSE 0.7 mph 3.8 mph 54% 0 in 122 W/m2
19:02 78.3 °F 61.9 °F 29.9 in Calm   3.1 mph 57% 0 in 113 W/m2
19:08 77.5 °F 62.6 °F 29.9 in South 0.7 mph 3.1 mph 60% 0 in 104 W/m2
19:13 76.8 °F 63.3 °F 29.9 in SSW 1.6 mph 3.1 mph 63% 0 in 89 W/m2
19:18 76.1 °F 63.5 °F 29.9 in SSW 1.6 mph 3.1 mph 65% 0 in 79 W/m2
19:23 75 °F 63.3 °F 29.9 in SW 2.2 mph 3.1 mph 67% 0 in 72 W/m2
19:28 74.3 °F 63.1 °F 29.9 in SW 2.2 mph 3.1 mph 68% 0 in 64 W/m2
19:33 73.6 °F 63.1 °F 29.9 in SW 0.7 mph 3.1 mph 70% 0 in 54 W/m2
19:38 73.2 °F 63.3 °F 29.9 in SW 1.6 mph 3.1 mph 71% 0 in 49 W/m2
19:43 72.9 °F 63 °F 29.9 in Calm   3.1 mph 71% 0 in 47 W/m2
19:48 73.2 °F 63.3 °F 29.9 in Calm   2.2 mph 71% 0 in 48 W/m2
19:53 73.6 °F 63.1 °F 29.9 in Calm     70% 0 in 38 W/m2
19:58 73.6 °F 61.2 °F 29.9 in NW 3.8 mph 4.5 mph 65% 0 in 33 W/m2
20:03 73.8 °F 61.3 °F 29.9 in NW 0.7 mph 4.5 mph 65% 0 in 29 W/m2
20:08 73.9 °F 59.7 °F 29.9 in NNW 1.6 mph 4.5 mph 61% 0 in 28 W/m2
20:13 74.1 °F 58.8 °F 29.9 in NNW 3.8 mph 4.5 mph 59% 0 in 20 W/m2
20:18 74.5 °F 55.2 °F 29.9 in NNW 3.8 mph 8.3 mph 51% 0 in 13 W/m2
20:23 74.5 °F 54.1 °F 29.9 in NNW 6.9 mph 11.4 mph 49% 0 in 6 W/m2
20:28 74.5 °F 53.4 °F 29.9 in NNW 6 mph 11.4 mph 48% 0 in 2 W/m2
20:45 73.9 °F 53.1 °F 29.9 in North 4.5 mph 12.1 mph 48% 0 in 0 W/m2
20:50 73.4 °F 52.5 °F 30 in North 7.6 mph 12.1 mph 48% 0 in 0 W/m2
20:55 73.2 °F 51.8 °F 30 in North 4.5 mph 11.4 mph 47% 0 in 0 W/m2
21:00 72.9 °F 52.2 °F 30 in NNW 6 mph 11.4 mph 48% 0 in 0 W/m2
21:05 72.7 °F 52 °F 30 in North 5.4 mph 10.7 mph 48% 0 in 0 W/m2
21:10 72.5 °F 51.6 °F 29.9 in North 6.9 mph 13.6 mph 48% 0 in 0 W/m2
21:15 72.3 °F 51.6 °F 30 in NNW 6.9 mph 13.6 mph 48% 0 in 0 W/m2
21:20 72.1 °F 51.4 °F 30 in NNW 4.5 mph 12.1 mph 48% 0 in 0 W/m2
21:25 72 °F 51.8 °F 30 in NNW 3.8 mph 9.8 mph 49% 0 in 0 W/m2
21:30 71.6 °F 52 °F 30 in NNW 5.4 mph 12.1 mph 50% 0 in 0 W/m2
21:35 71.6 °F 51.4 °F 30 in North 6 mph 13 mph 49% 0 in 0 W/m2
21:40 71.4 °F 51.8 °F 30 in NNW 4.5 mph 13 mph 50% 0 in 0 W/m2
21:45 71.2 °F 52.2 °F 30 in NNW 6 mph 11.4 mph 51% 0 in 0 W/m2
21:50 70.7 °F 52.2 °F 30 in NNW 3.8 mph 10.7 mph 52% 0 in 0 W/m2
21:55 70.5 °F 52.2 °F 30 in North 5.4 mph 10.7 mph 52% 0 in 0 W/m2
22:00 70.2 °F 51.6 °F 30 in North 3.1 mph 8.3 mph 52% 0 in 0 W/m2
22:05 70 °F 52.2 °F 30 in North 4.5 mph 9.2 mph 53% 0 in 0 W/m2
22:06 70 °F 52.2 °F 30 in North 4.5 mph 9.2 mph 53% 0 in 0 W/m2
22:11 69.8 °F 52 °F 30 in North 5.4 mph 9.2 mph 53% 0 in 0 W/m2
22:16 69.6 °F 52.3 °F 30 in NNW 6 mph 9.8 mph 54% 0 in 0 W/m2
22:21 69.4 °F 52.2 °F 30 in NNW 3.8 mph 9.8 mph 54% 0 in 0 W/m2
22:26 69.3 °F 52 °F 30 in North 8.3 mph 10.7 mph 54% 0 in 0 W/m2
22:31 69.1 °F 52.3 °F 30 in North 4.5 mph 12.1 mph 55% 0 in 0 W/m2
22:36 68.9 °F 52.2 °F 30 in NNW 5.4 mph 12.1 mph 55% 0 in 0 W/m2
22:41 68.7 °F 52 °F 30 in NNW 4.5 mph 8.3 mph 55% 0 in 0 W/m2
22:46 68.4 °F 52.2 °F 30 in NNW 4.5 mph 9.8 mph 56% 0 in 0 W/m2
22:51 68.2 °F 52 °F 30 in NNW 3.8 mph 9.8 mph 56% 0 in 0 W/m2
22:56 68 °F 51.6 °F 30 in North 4.5 mph 9.2 mph 56% 0 in 0 W/m2
23:01 67.6 °F 52 °F 30 in North 2.2 mph 8.3 mph 57% 0 in 0 W/m2
23:06 67.5 °F 51.6 °F 30 in North 4.5 mph 8.3 mph 57% 0 in 0 W/m2
23:11 67.5 °F 51.3 °F 30 in NNW 6 mph 8.3 mph 56% 0 in 0 W/m2
23:16 67.5 °F 51.6 °F 30 in NNW 2.2 mph 8.3 mph 57% 0 in 0 W/m2
23:21 66.9 °F 51.3 °F 30 in NNW 3.8 mph 8.3 mph 57% 0 in 0 W/m2
23:26 66.9 °F 51.3 °F 30 in North 4.5 mph 6.9 mph 57% 0 in 0 W/m2
23:31 66.7 °F 51.1 °F 30 in North 1.6 mph 6.9 mph 57% 0 in 0 W/m2
23:36 66.6 °F 50.9 °F 30 in North 2.2 mph 6.9 mph 57% 0 in 0 W/m2
23:41 66.4 °F 50.7 °F 30 in NNW 3.1 mph 6 mph 57% 0 in 0 W/m2
23:46 66.4 °F 50.7 °F 30 in North 5.4 mph 8.3 mph 57% 0 in 0 W/m2
Northern Hawkes Bay. New Zealand Historic Data
Compliments of Weather Underground - 2.25 mb